Time;durP1;ratioP1;P1;durP2;ratioP2;P2;SDS_P1;SDS_P2;PMS_P1;PMS_P2;Temp;Humidity;BMP_temperature;BMP_pressure;BME280_temperature;BME280_humidity;BME280_pressure;Samples;Min_cycle;Max_cycle;Signal;HPM_P1;HPM_P2
2021/01/20 00:02:22;;;;;;;120.37;47.07;;;-0.80;99.90;;;;;;4350241;33;20136;-77
2021/01/20 00:04:49;;;;;;;130.40;48.30;;;-0.80;99.90;;;;;;4349483;33;20506;-75
2021/01/20 00:07:16;;;;;;;121.63;45.07;;;-0.70;99.90;;;;;;4350149;33;20358;-76
2021/01/20 00:09:43;;;;;;;121.57;45.40;;;-0.70;99.90;;;;;;4350318;33;20173;-75
2021/01/20 00:12:09;;;;;;;128.77;47.60;;;-0.70;99.90;;;;;;4349979;33;20505;-75
2021/01/20 00:14:36;;;;;;;121.47;45.47;;;-0.70;99.90;;;;;;4351132;33;20227;-75
2021/01/20 00:17:03;;;;;;;117.47;44.13;;;-0.70;99.90;;;;;;4349770;33;20161;-75
2021/01/20 00:19:30;;;;;;;121.37;44.60;;;-0.70;99.90;;;;;;4349722;33;20212;-75
2021/01/20 00:21:56;;;;;;;115.53;43.50;;;-0.70;99.90;;;;;;4349959;33;20471;-75
2021/01/20 00:24:23;;;;;;;108.40;43.07;;;-0.70;99.90;;;;;;4349386;33;20159;-75
2021/01/20 00:26:49;;;;;;;114.70;43.50;;;-0.70;99.90;;;;;;4350596;33;20161;-75
2021/01/20 00:29:16;;;;;;;111.47;43.13;;;-0.70;99.90;;;;;;4349297;33;20198;-75
2021/01/20 00:31:43;;;;;;;103.50;40.83;;;-0.70;99.90;;;;;;4349630;33;20190;-75
2021/01/20 00:34:09;;;;;;;109.50;40.30;;;-0.60;99.90;;;;;;4350558;33;20463;-75
2021/01/20 00:36:36;;;;;;;107.17;40.00;;;-0.70;99.90;;;;;;4349752;33;20140;-75
2021/01/20 00:39:03;;;;;;;102.90;41.03;;;-0.70;99.90;;;;;;4349840;33;20149;-76
2021/01/20 00:41:30;;;;;;;104.50;39.87;;;-0.70;99.90;;;;;;4349880;33;20174;-75
2021/01/20 00:43:56;;;;;;;100.83;38.33;;;-0.60;99.90;;;;;;4349619;33;20160;-75
2021/01/20 00:46:23;;;;;;;101.63;40.00;;;-0.60;99.90;;;;;;4349642;33;20547;-76
2021/01/20 00:48:50;;;;;;;97.10;37.00;;;-0.70;99.90;;;;;;4349581;33;20166;-75
2021/01/20 00:51:16;;;;;;;96.23;38.40;;;-0.70;99.90;;;;;;4349556;33;20186;-75
2021/01/20 00:53:43;;;;;;;98.47;37.80;;;-0.80;99.90;;;;;;4349005;33;20144;-76
2021/01/20 00:56:11;;;;;;;98.23;36.63;;;-0.70;99.90;;;;;;4349523;33;20199;-75
2021/01/20 00:58:38;;;;;;;92.80;36.10;;;-0.80;99.90;;;;;;4349182;33;20171;-75
2021/01/20 01:01:05;;;;;;;96.47;38.27;;;-0.70;99.90;;;;;;4349429;33;20233;-75
2021/01/20 01:03:32;;;;;;;83.53;35.70;;;-0.70;99.90;;;;;;4349453;33;20467;-75
2021/01/20 01:05:59;;;;;;;89.77;34.80;;;-0.70;99.90;;;;;;4349378;33;20171;-75
2021/01/20 01:08:25;;;;;;;84.10;34.47;;;-0.70;99.90;;;;;;4349119;33;20198;-75
2021/01/20 01:10:53;;;;;;;93.47;35.10;;;-0.70;99.90;;;;;;4349425;33;20432;-75
2021/01/20 01:13:21;;;;;;;86.20;34.63;;;-0.60;99.90;;;;;;4349453;33;20176;-75
2021/01/20 01:15:48;;;;;;;80.97;32.80;;;-0.70;99.90;;;;;;4349146;33;20145;-75
2021/01/20 01:18:14;;;;;;;84.20;33.10;;;-0.80;99.90;;;;;;4348913;33;20182;-76
2021/01/20 01:20:41;;;;;;;83.27;32.00;;;-0.80;99.90;;;;;;4349157;33;20495;-76
2021/01/20 01:23:08;;;;;;;84.33;33.13;;;-0.80;99.90;;;;;;4349178;33;20144;-76
2021/01/20 01:25:34;;;;;;;87.67;34.33;;;-0.80;99.90;;;;;;4349276;33;20200;-76
2021/01/20 01:28:10;;;;;;;81.27;33.07;;;-0.80;99.90;;;;;;4349272;33;20201;-76
2021/01/20 01:30:37;;;;;;;81.40;32.07;;;-0.80;99.90;;;;;;4349438;33;20198;-76
2021/01/20 01:33:05;;;;;;;78.07;31.77;;;-0.80;99.90;;;;;;4349493;33;20195;-76
2021/01/20 01:35:32;;;;;;;80.40;32.47;;;-0.70;99.90;;;;;;4349847;33;20149;-76
2021/01/20 01:37:59;;;;;;;76.20;31.43;;;-0.70;99.90;;;;;;4349199;33;20156;-76
2021/01/20 01:40:26;;;;;;;78.17;30.73;;;-0.70;99.90;;;;;;4352220;33;20159;-76
2021/01/20 01:42:53;;;;;;;76.57;31.23;;;-0.70;99.90;;;;;;4352722;33;20168;-76
2021/01/20 01:45:19;;;;;;;74.63;31.70;;;-0.80;99.90;;;;;;4352517;33;20171;-76
2021/01/20 01:47:46;;;;;;;75.00;30.70;;;-0.80;99.90;;;;;;4352122;33;20184;-75
2021/01/20 01:50:13;;;;;;;84.33;32.20;;;-0.80;99.90;;;;;;4352093;33;20191;-76
2021/01/20 01:52:42;;;;;;;77.00;30.90;;;-0.80;99.90;;;;;;4352083;33;20148;-76
2021/01/20 01:55:10;;;;;;;75.20;31.50;;;-0.80;99.90;;;;;;4352101;33;20145;-75
2021/01/20 01:57:40;;;;;;;76.57;29.97;;;-0.70;99.90;;;;;;4351948;33;20144;-76
2021/01/20 02:00:08;;;;;;;77.97;29.60;;;-0.70;99.90;;;;;;4351413;33;20167;-75
2021/01/20 02:02:36;;;;;;;76.07;29.63;;;-0.70;99.90;;;;;;4351935;33;20405;-76
2021/01/20 02:05:04;;;;;;;78.57;30.80;;;-0.80;99.90;;;;;;4351369;33;20176;-76
2021/01/20 02:07:31;;;;;;;71.60;28.87;;;-0.80;99.90;;;;;;4353266;33;20460;-76
2021/01/20 02:10:00;;;;;;;78.20;31.63;;;-0.80;99.90;;;;;;4351767;33;20141;-76
2021/01/20 02:12:48;;;;;;;77.17;31.00;;;-0.80;99.90;;;;;;4351723;33;20198;-76
2021/01/20 02:15:17;;;;;;;73.20;29.80;;;-0.90;99.90;;;;;;4352811;33;20172;-75
2021/01/20 02:17:58;;;;;;;75.93;29.33;;;-0.80;99.90;;;;;;4351945;33;20140;-76
2021/01/20 02:20:31;;;;;;;81.40;30.57;;;-0.80;99.90;;;;;;4351680;32;20163;-76
2021/01/20 02:23:02;;;;;;;71.27;29.33;;;-0.80;99.90;;;;;;4351501;33;20210;-76
2021/01/20 02:25:38;;;;;;;72.57;29.83;;;-0.80;99.90;;;;;;4351543;33;20196;-75
2021/01/20 02:28:05;;;;;;;78.63;30.23;;;-0.80;99.90;;;;;;4351392;33;20163;-75
2021/01/20 02:30:34;;;;;;;78.93;30.67;;;-0.80;99.90;;;;;;4351064;33;20160;-75
2021/01/20 02:33:02;;;;;;;72.60;30.03;;;-0.80;99.90;;;;;;4351481;33;20416;-75
2021/01/20 02:35:31;;;;;;;76.90;29.80;;;-0.80;99.90;;;;;;4351213;33;20475;-75
2021/01/20 02:38:01;;;;;;;70.73;29.03;;;-0.90;99.90;;;;;;4338346;33;20182;-75
2021/01/20 02:40:28;;;;;;;81.53;30.53;;;-0.90;99.90;;;;;;4352869;33;20142;-76
2021/01/20 02:42:55;;;;;;;80.47;31.20;;;-0.90;99.90;;;;;;4348776;33;20179;-76
2021/01/20 02:45:21;;;;;;;73.03;29.77;;;-1.00;99.90;;;;;;4350087;33;20553;-76
2021/01/20 02:47:49;;;;;;;74.70;29.27;;;-1.00;99.90;;;;;;4350612;33;20171;-76
2021/01/20 02:50:17;;;;;;;76.13;29.10;;;-1.00;99.90;;;;;;4351056;33;20233;-76
2021/01/20 02:52:49;;;;;;;74.47;29.17;;;-0.90;99.90;;;;;;4350741;33;20424;-76
2021/01/20 02:55:18;;;;;;;76.20;30.13;;;-0.90;99.90;;;;;;4351209;33;20167;-75
2021/01/20 02:57:46;;;;;;;73.40;29.50;;;-0.90;99.90;;;;;;4352554;33;20171;-76
2021/01/20 03:00:14;;;;;;;78.13;29.93;;;-0.90;99.90;;;;;;4351111;33;20148;-76
2021/01/20 03:02:43;;;;;;;71.97;29.60;;;-0.90;99.90;;;;;;4350899;33;20168;-76
2021/01/20 03:05:11;;;;;;;72.27;28.23;;;-0.90;99.90;;;;;;4351097;33;20156;-76
2021/01/20 03:07:40;;;;;;;69.30;27.27;;;-0.90;99.90;;;;;;4351558;33;20191;-76
2021/01/20 03:10:09;;;;;;;72.47;28.33;;;-0.90;99.90;;;;;;4337152;33;20231;-76
2021/01/20 03:12:36;;;;;;;73.90;28.97;;;-0.80;99.90;;;;;;4351210;33;20544;-76
2021/01/20 03:15:09;;;;;;;76.30;28.00;;;-0.80;99.90;;;;;;4350957;33;20196;-76
2021/01/20 03:17:36;;;;;;;72.10;28.10;;;-0.90;99.90;;;;;;4351676;33;20156;-76
2021/01/20 03:20:03;;;;;;;68.77;27.50;;;-0.90;99.90;;;;;;4350208;33;20160;-76
2021/01/20 03:22:30;;;;;;;69.30;27.97;;;-0.90;99.90;;;;;;4350217;33;20148;-75
2021/01/20 03:24:57;;;;;;;68.47;26.80;;;-0.90;99.90;;;;;;4350691;33;20170;-76
2021/01/20 03:27:24;;;;;;;72.33;27.90;;;-0.90;99.90;;;;;;4350740;33;20509;-76
2021/01/20 03:29:50;;;;;;;71.03;29.07;;;-0.90;99.90;;;;;;4350567;33;20197;-76
2021/01/20 03:32:17;;;;;;;72.70;29.73;;;-0.90;99.90;;;;;;4351196;33;20159;-76
2021/01/20 03:34:44;;;;;;;73.90;28.23;;;-0.90;99.90;;;;;;4350089;33;20149;-76
2021/01/20 03:37:11;;;;;;;73.00;28.83;;;-0.90;99.90;;;;;;4350656;33;20415;-76
2021/01/20 03:39:37;;;;;;;74.53;28.77;;;-0.90;99.90;;;;;;4350005;33;20222;-76
2021/01/20 03:42:05;;;;;;;66.90;26.97;;;-0.90;99.90;;;;;;4349954;33;20148;-76
2021/01/20 03:44:31;;;;;;;67.33;27.30;;;-0.90;99.90;;;;;;4350347;33;20186;-75
2021/01/20 03:46:58;;;;;;;71.33;28.30;;;-0.90;99.90;;;;;;4350451;33;20137;-75
2021/01/20 03:49:25;;;;;;;71.57;28.07;;;-0.90;99.90;;;;;;4350382;33;20467;-76
2021/01/20 03:51:51;;;;;;;67.90;27.10;;;-0.90;99.90;;;;;;4350414;33;20184;-76
2021/01/20 03:54:18;;;;;;;75.13;27.63;;;-0.90;99.90;;;;;;4350542;33;20148;-76
2021/01/20 03:56:45;;;;;;;65.07;27.30;;;-1.00;99.90;;;;;;4349936;33;20510;-76
2021/01/20 03:59:12;;;;;;;66.03;27.90;;;-0.90;99.90;;;;;;4349658;33;20223;-76
2021/01/20 04:01:38;;;;;;;71.53;28.37;;;-0.90;99.90;;;;;;4349507;33;20231;-76
2021/01/20 04:04:05;;;;;;;67.20;27.50;;;-0.90;99.90;;;;;;4350392;33;20487;-76
2021/01/20 04:06:32;;;;;;;68.40;27.37;;;-0.90;99.90;;;;;;4350254;33;20448;-76
2021/01/20 04:08:58;;;;;;;63.10;27.97;;;-0.90;99.90;;;;;;4350052;33;20198;-76
2021/01/20 04:11:25;;;;;;;71.13;27.83;;;-0.90;99.90;;;;;;4349243;33;20227;-76
2021/01/20 04:13:52;;;;;;;67.73;27.20;;;-0.90;99.90;;;;;;4351494;33;20390;-76
2021/01/20 04:16:19;;;;;;;65.47;26.37;;;-0.90;99.90;;;;;;4349932;33;20153;-76
2021/01/20 04:18:45;;;;;;;66.93;27.73;;;-0.70;99.90;;;;;;4349875;33;20167;-76
2021/01/20 04:21:12;;;;;;;68.50;26.87;;;-0.70;99.90;;;;;;4350837;33;20202;-75
2021/01/20 04:23:38;;;;;;;65.40;27.10;;;-0.70;99.90;;;;;;4350713;33;20153;-76
2021/01/20 04:26:09;;;;;;;65.63;27.17;;;-0.80;99.90;;;;;;4349940;33;20158;-76
2021/01/20 04:28:36;;;;;;;62.77;25.77;;;-0.80;99.90;;;;;;4351407;33;20415;-76
2021/01/20 04:31:04;;;;;;;69.87;27.53;;;-0.90;99.90;;;;;;4349572;33;20167;-76
2021/01/20 04:33:31;;;;;;;75.57;28.37;;;-0.90;99.90;;;;;;4349591;33;20190;-76
2021/01/20 04:35:58;;;;;;;68.03;28.07;;;-0.90;99.90;;;;;;4349731;33;20140;-76
2021/01/20 04:38:25;;;;;;;66.40;28.43;;;-0.80;99.90;;;;;;4349741;33;20152;-76
2021/01/20 04:40:56;;;;;;;65.30;26.67;;;-0.80;99.90;;;;;;4350155;33;20522;-76
2021/01/20 04:43:24;;;;;;;67.50;27.83;;;-0.80;99.90;;;;;;4351112;33;20585;-76
2021/01/20 04:45:54;;;;;;;67.57;27.57;;;-0.80;99.90;;;;;;4349663;33;20231;-76
2021/01/20 04:48:31;;;;;;;71.33;26.37;;;-0.80;99.90;;;;;;4349157;33;20483;-76
2021/01/20 04:51:02;;;;;;;74.07;28.00;;;-0.80;99.90;;;;;;4350587;33;20272;-76
2021/01/20 04:53:31;;;;;;;63.87;27.07;;;-0.80;99.90;;;;;;4350699;33;20199;-76
2021/01/20 04:56:06;;;;;;;65.80;27.30;;;-0.80;99.90;;;;;;4348925;33;20136;-76
2021/01/20 04:58:33;;;;;;;61.77;27.13;;;-0.80;99.90;;;;;;4349746;33;20466;-75
2021/01/20 05:01:00;;;;;;;66.93;26.63;;;-0.70;99.90;;;;;;4349422;33;20382;-75
2021/01/20 05:03:28;;;;;;;64.27;26.73;;;-0.80;99.90;;;;;;4349405;33;20203;-75
2021/01/20 05:05:55;;;;;;;63.37;25.87;;;-0.80;99.90;;;;;;4349686;33;20164;-76
2021/01/20 05:08:23;;;;;;;64.97;26.40;;;-0.80;99.90;;;;;;4348950;33;20213;-76
2021/01/20 05:10:50;;;;;;;64.47;27.17;;;-0.80;99.90;;;;;;4349281;33;20144;-76
2021/01/20 05:13:24;;;;;;;65.77;26.33;;;-0.80;99.90;;;;;;4349014;33;20174;-76
2021/01/20 05:15:51;;;;;;;65.53;26.57;;;-0.80;99.90;;;;;;4349373;33;20183;-76
2021/01/20 05:18:18;;;;;;;69.07;27.30;;;-0.80;99.90;;;;;;4349294;33;20156;-76
2021/01/20 05:20:46;;;;;;;68.53;27.40;;;-0.70;99.90;;;;;;4349091;33;20164;-77
2021/01/20 05:23:13;;;;;;;63.67;26.07;;;-0.70;99.90;;;;;;4349613;33;20156;-77
2021/01/20 05:25:43;;;;;;;67.60;26.67;;;-0.70;99.90;;;;;;4350407;33;20537;-77
2021/01/20 05:28:25;;;;;;;67.10;26.20;;;-0.60;99.90;;;;;;4349136;33;20152;-77
2021/01/20 05:30:55;;;;;;;63.27;25.37;;;-0.60;99.90;;;;;;4348790;33;20152;-77
2021/01/20 05:33:33;;;;;;;66.03;26.37;;;-0.60;99.90;;;;;;4349107;33;20148;-77
2021/01/20 05:36:07;;;;;;;61.07;26.63;;;-0.70;99.90;;;;;;4334127;33;20191;-76
2021/01/20 05:38:44;;;;;;;62.07;25.60;;;-0.70;99.90;;;;;;4347294;33;20167;-77
2021/01/20 05:41:21;;;;;;;61.33;25.43;;;-0.70;99.90;;;;;;4349236;33;20172;-76
2021/01/20 05:43:54;;;;;;;59.77;25.60;;;-0.70;99.90;;;;;;4348930;33;20158;-76
2021/01/20 05:46:35;;;;;;;66.10;26.47;;;-0.70;99.90;;;;;;4349032;33;20175;-76
2021/01/20 05:49:04;;;;;;;62.70;25.60;;;-0.70;99.90;;;;;;4349087;33;20388;-76
2021/01/20 05:51:42;;;;;;;65.30;26.33;;;-0.60;99.90;;;;;;4349023;33;20183;-76
2021/01/20 05:54:09;;;;;;;66.17;26.77;;;-0.70;99.90;;;;;;4348985;33;20171;-76
2021/01/20 05:56:37;;;;;;;66.83;26.50;;;-0.70;99.90;;;;;;4348421;33;20428;-76
2021/01/20 05:59:10;;;;;;;63.67;26.80;;;-0.70;99.90;;;;;;4349448;33;20183;-76
2021/01/20 06:01:38;;;;;;;60.50;25.67;;;-0.60;99.90;;;;;;4348705;33;20164;-76
2021/01/20 06:04:06;;;;;;;69.43;26.37;;;-0.60;99.90;;;;;;4349429;33;20182;-76
2021/01/20 06:06:33;;;;;;;60.20;25.53;;;-0.50;99.90;;;;;;4348916;33;20172;-76
2021/01/20 06:09:03;;;;;;;60.67;25.23;;;-0.50;99.90;;;;;;4348858;33;20398;-76
2021/01/20 06:11:30;;;;;;;58.73;25.93;;;-0.50;99.90;;;;;;4348769;33;20182;-76
2021/01/20 06:13:56;;;;;;;58.27;24.87;;;-0.50;99.90;;;;;;4348422;33;20167;-76
2021/01/20 06:16:27;;;;;;;61.83;24.67;;;-0.50;99.90;;;;;;4349009;33;20168;-76
2021/01/20 06:19:06;;;;;;;64.67;26.03;;;-0.50;99.90;;;;;;4350203;33;20242;-76
2021/01/20 06:21:35;;;;;;;60.73;25.07;;;-0.50;99.90;;;;;;4349008;33;20152;-76
2021/01/20 06:24:17;;;;;;;59.20;25.43;;;-0.40;99.90;;;;;;4348236;33;20203;-76
2021/01/20 06:27:04;;;;;;;61.47;25.63;;;-0.40;99.90;;;;;;4351496;33;20152;-76
2021/01/20 06:29:36;;;;;;;58.67;25.20;;;-0.40;99.90;;;;;;4351416;33;20140;-76
2021/01/20 06:32:03;;;;;;;57.63;24.53;;;-0.40;99.90;;;;;;4351827;33;20203;-76
2021/01/20 06:34:30;;;;;;;60.47;25.77;;;-0.30;99.90;;;;;;4351302;33;20153;-76
2021/01/20 06:36:57;;;;;;;58.77;24.40;;;-0.40;99.90;;;;;;4351315;33;20171;-76
2021/01/20 06:39:29;;;;;;;59.50;24.67;;;-0.30;99.90;;;;;;4352230;33;20155;-76
2021/01/20 06:41:57;;;;;;;58.77;25.03;;;-0.30;99.90;;;;;;4352340;33;20160;-76
2021/01/20 06:44:23;;;;;;;54.03;24.63;;;-0.30;99.90;;;;;;4351378;33;20174;-77
2021/01/20 06:46:56;;;;;;;56.93;24.77;;;-0.20;99.90;;;;;;4350779;33;20145;-76
2021/01/20 06:49:49;;;;;;;55.50;24.70;;;-0.20;99.90;;;;;;4351100;33;20167;-76
2021/01/20 06:52:15;;;;;;;56.23;23.90;;;-0.30;99.90;;;;;;4351423;33;20156;-76
2021/01/20 06:54:44;;;;;;;60.93;26.30;;;-0.20;99.90;;;;;;4351069;33;20182;-76
2021/01/20 06:57:32;;;;;;;59.43;25.23;;;-0.20;99.90;;;;;;4350785;33;20192;-76
2021/01/20 07:00:08;;;;;;;56.87;24.83;;;-0.20;99.90;;;;;;4350980;33;20473;-76
2021/01/20 07:02:36;;;;;;;54.50;24.07;;;-0.10;99.90;;;;;;4350996;33;20152;-76
2021/01/20 07:05:05;;;;;;;57.70;25.33;;;-0.10;99.90;;;;;;4350926;33;20195;-76
2021/01/20 07:07:54;;;;;;;55.60;25.63;;;-0.10;99.90;;;;;;4350717;33;20184;-76
2021/01/20 07:10:26;;;;;;;55.67;24.13;;;-0.10;99.90;;;;;;4351009;33;20182;-76
2021/01/20 07:13:29;;;;;;;57.40;24.57;;;-0.10;99.90;;;;;;4351662;33;20175;-77
2021/01/20 07:15:56;;;;;;;54.90;24.57;;;0.00;99.90;;;;;;4305017;33;20176;-77
2021/01/20 07:18:24;;;;;;;55.40;24.57;;;0.00;99.90;;;;;;4305126;33;20507;-76
2021/01/20 07:20:52;;;;;;;55.77;24.23;;;0.10;99.90;;;;;;4304167;33;20204;-76
2021/01/20 07:23:19;;;;;;;56.17;24.07;;;0.00;99.90;;;;;;4292667;33;20146;-76
2021/01/20 07:25:50;;;;;;;57.03;26.10;;;0.10;99.90;;;;;;4304429;33;20177;-76
2021/01/20 07:28:18;;;;;;;55.73;24.30;;;0.20;99.90;;;;;;4304493;33;20205;-77
2021/01/20 07:30:45;;;;;;;50.97;24.27;;;0.20;99.90;;;;;;4304372;33;20158;-77
2021/01/20 07:33:19;;;;;;;57.30;25.93;;;0.30;99.90;;;;;;4304059;33;20230;-77
2021/01/20 07:35:47;;;;;;;54.17;24.53;;;0.30;99.90;;;;;;4303797;33;20225;-77
2021/01/20 07:38:14;;;;;;;56.30;25.30;;;0.40;99.90;;;;;;4304041;33;20157;-77
2021/01/20 07:40:43;;;;;;;59.80;25.43;;;0.40;99.90;;;;;;4303511;33;20153;-77
2021/01/20 07:43:20;;;;;;;56.63;24.73;;;0.50;99.90;;;;;;4304995;33;20169;-77
2021/01/20 07:45:47;;;;;;;57.53;25.07;;;0.40;99.90;;;;;;4305163;33;20191;-77
2021/01/20 07:48:13;;;;;;;56.50;25.73;;;0.40;99.90;;;;;;4304133;33;20154;-77
2021/01/20 07:50:48;;;;;;;59.43;25.50;;;0.40;99.90;;;;;;4303398;33;20145;-77
2021/01/20 07:53:19;;;;;;;59.60;25.07;;;0.40;99.90;;;;;;4345026;33;20159;-78
2021/01/20 07:55:47;;;;;;;59.30;26.20;;;0.40;99.90;;;;;;4350162;33;20177;-78
2021/01/20 07:58:14;;;;;;;59.73;26.37;;;0.50;99.90;;;;;;4349554;33;20145;-78
2021/01/20 08:00:50;;;;;;;59.87;26.47;;;0.50;99.90;;;;;;4350522;33;20152;-79
2021/01/20 08:03:33;;;;;;;61.03;25.53;;;0.50;99.90;;;;;;4349539;33;20170;-79
2021/01/20 08:06:08;;;;;;;59.23;24.40;;;0.50;99.90;;;;;;4351534;33;20194;-79
2021/01/20 08:08:55;;;;;;;61.77;26.27;;;0.60;99.90;;;;;;4351749;33;20152;-79
2021/01/20 08:11:27;;;;;;;58.47;26.07;;;0.60;99.90;;;;;;4350920;33;20175;-79
2021/01/20 08:13:55;;;;;;;60.47;26.53;;;0.70;99.90;;;;;;4352045;33;20399;-77
2021/01/20 08:16:22;;;;;;;63.40;25.30;;;0.70;99.90;;;;;;4350008;33;20215;-79
2021/01/20 08:18:49;;;;;;;59.17;25.13;;;0.70;99.90;;;;;;4349850;33;20463;-77
2021/01/20 08:21:16;;;;;;;57.70;25.67;;;0.80;99.90;;;;;;4351332;33;20194;-78
2021/01/20 08:23:57;;;;;;;51.67;24.83;;;0.80;99.90;;;;;;4349278;33;20179;-77
2021/01/20 08:26:31;;;;;;;58.27;25.07;;;0.80;99.90;;;;;;4349911;33;20145;-78
2021/01/20 08:29:10;;;;;;;59.10;25.57;;;0.90;99.90;;;;;;4346308;33;20155;-79
2021/01/20 08:31:42;;;;;;;56.87;24.77;;;1.00;99.90;;;;;;4349034;33;20227;-77
2021/01/20 08:34:17;;;;;;;56.43;25.13;;;1.00;99.90;;;;;;4347702;33;20437;-77
2021/01/20 08:36:55;;;;;;;55.43;25.03;;;1.10;99.90;;;;;;4348765;33;20168;-78
2021/01/20 08:39:23;;;;;;;56.23;24.57;;;1.10;99.90;;;;;;4338697;33;20192;-77
2021/01/20 08:42:18;;;;;;;49.93;23.67;;;1.10;99.90;;;;;;4349537;33;20148;-76
2021/01/20 08:45:19;;;;;;;53.70;24.30;;;1.20;99.90;;;;;;4349259;33;20168;-77
2021/01/20 08:47:52;;;;;;;54.13;22.83;;;1.20;99.90;;;;;;4339754;33;20452;-75
2021/01/20 08:50:37;;;;;;;52.73;24.20;;;1.20;99.90;;;;;;4349226;33;20243;-74
2021/01/20 08:53:07;;;;;;;51.33;23.67;;;1.20;99.90;;;;;;4349824;33;20144;-76
2021/01/20 08:55:40;;;;;;;54.50;23.77;;;1.20;99.90;;;;;;4349271;33;20164;-74
2021/01/20 08:58:20;;;;;;;53.63;23.93;;;1.30;99.90;;;;;;4349644;33;20148;-74
2021/01/20 09:00:50;;;;;;;54.23;24.40;;;1.20;99.90;;;;;;4348740;33;20148;-74
2021/01/20 09:03:18;;;;;;;55.73;24.13;;;1.30;99.90;;;;;;4349188;33;20612;-75
2021/01/20 09:05:46;;;;;;;56.03;25.07;;;1.30;99.90;;;;;;4348534;33;20168;-75
2021/01/20 09:08:14;;;;;;;56.60;24.80;;;1.40;99.90;;;;;;4348760;33;20204;-75
2021/01/20 09:10:42;;;;;;;51.60;23.73;;;1.40;99.90;;;;;;4348805;33;20156;-77
2021/01/20 09:13:09;;;;;;;50.37;23.60;;;1.40;99.90;;;;;;4348033;33;20490;-76
2021/01/20 09:15:36;;;;;;;54.43;23.63;;;1.50;99.90;;;;;;4348906;33;20156;-75
2021/01/20 09:18:06;;;;;;;50.03;23.13;;;1.50;99.90;;;;;;4348942;33;20216;-75
2021/01/20 09:20:34;;;;;;;54.37;23.40;;;1.60;99.90;;;;;;4349516;33;20598;-76
2021/01/20 09:23:05;;;;;;;52.10;23.47;;;1.60;99.90;;;;;;4348663;33;20211;-76
2021/01/20 09:25:32;;;;;;;56.63;24.60;;;1.60;99.90;;;;;;4347894;33;20520;-76
2021/01/20 09:27:59;;;;;;;52.73;24.03;;;1.60;99.90;;;;;;4348521;33;20183;-74
2021/01/20 09:30:26;;;;;;;59.63;25.00;;;1.50;99.90;;;;;;4349083;33;20153;-76
2021/01/20 09:32:53;;;;;;;51.97;23.53;;;1.60;99.90;;;;;;4348731;33;20148;-77
2021/01/20 09:35:21;;;;;;;53.03;24.20;;;1.70;99.90;;;;;;4348307;33;20141;-78
2021/01/20 09:37:48;;;;;;;59.07;25.17;;;1.80;99.90;;;;;;4348013;33;20419;-77
2021/01/20 09:40:18;;;;;;;56.97;24.37;;;1.70;99.90;;;;;;4346989;33;20215;-77
2021/01/20 09:42:49;;;;;;;57.90;25.17;;;1.70;99.90;;;;;;4348605;33;20387;-77
2021/01/20 09:45:22;;;;;;;58.83;25.90;;;1.60;99.90;;;;;;4348265;33;20160;-77
2021/01/20 09:47:57;;;;;;;57.87;24.67;;;1.70;99.90;;;;;;4349124;33;20245;-76
2021/01/20 09:50:25;;;;;;;63.27;26.47;;;1.80;99.90;;;;;;4348794;33;20227;-77
2021/01/20 09:52:53;;;;;;;60.63;24.97;;;1.80;99.90;;;;;;4348541;33;20501;-77
2021/01/20 09:55:21;;;;;;;60.30;27.23;;;1.90;99.90;;;;;;4348195;33;20488;-77
2021/01/20 09:57:48;;;;;;;55.63;24.50;;;1.90;99.90;;;;;;4348525;33;20504;-75
2021/01/20 10:00:16;;;;;;;57.57;24.63;;;1.90;99.90;;;;;;4350017;33;20144;-76
2021/01/20 10:02:43;;;;;;;59.87;26.43;;;2.00;99.90;;;;;;4351237;33;20231;-76
2021/01/20 10:05:11;;;;;;;56.87;25.17;;;2.00;99.90;;;;;;4351525;33;20514;-76
2021/01/20 10:07:39;;;;;;;59.77;26.13;;;2.00;99.90;;;;;;4351564;33;20499;-75
2021/01/20 10:10:13;;;;;;;58.73;25.83;;;2.00;99.90;;;;;;4351592;33;20152;-76
2021/01/20 10:12:40;;;;;;;61.00;25.97;;;2.00;99.90;;;;;;4351656;33;20415;-77
2021/01/20 10:15:08;;;;;;;58.83;24.83;;;2.00;99.90;;;;;;4351330;33;20494;-76
2021/01/20 10:17:36;;;;;;;56.13;25.03;;;2.00;99.90;;;;;;4350999;33;20190;-77
2021/01/20 10:20:05;;;;;;;55.57;24.77;;;2.10;99.90;;;;;;4334716;33;20461;-77
2021/01/20 10:22:32;;;;;;;57.87;25.17;;;2.00;99.90;;;;;;4345923;33;20183;-76
2021/01/20 10:24:59;;;;;;;59.30;24.80;;;2.10;99.90;;;;;;4351026;33;20141;-75
2021/01/20 10:27:27;;;;;;;55.33;24.60;;;2.10;99.90;;;;;;4351217;33;20148;-74
2021/01/20 10:29:54;;;;;;;60.10;25.90;;;2.10;99.90;;;;;;4350941;33;20175;-74
2021/01/20 10:32:20;;;;;;;58.43;25.73;;;2.10;99.90;;;;;;4351326;33;20429;-75
2021/01/20 10:34:47;;;;;;;53.27;24.63;;;2.20;99.90;;;;;;4350625;33;20148;-77
2021/01/20 10:37:14;;;;;;;56.00;24.53;;;2.20;99.90;;;;;;4350688;33;20227;-76
2021/01/20 10:39:41;;;;;;;59.50;25.17;;;2.30;99.90;;;;;;4350738;33;20144;-77
2021/01/20 10:42:08;;;;;;;57.23;24.37;;;2.40;99.90;;;;;;4350097;33;20202;-76
2021/01/20 10:44:35;;;;;;;50.87;23.40;;;2.50;99.90;;;;;;4350245;33;20174;-78
2021/01/20 10:47:02;;;;;;;50.57;23.17;;;2.50;99.90;;;;;;4351052;33;20238;-76
2021/01/20 10:49:29;;;;;;;51.67;23.27;;;2.50;99.90;;;;;;4351119;33;20152;-77
2021/01/20 10:51:56;;;;;;;52.87;23.60;;;2.50;99.90;;;;;;4350414;33;20233;-77
2021/01/20 10:54:22;;;;;;;55.90;23.90;;;2.50;99.90;;;;;;4351103;33;20226;-77
2021/01/20 10:56:49;;;;;;;49.40;23.80;;;2.60;99.90;;;;;;4350694;33;20149;-77
2021/01/20 10:59:16;;;;;;;49.70;23.03;;;2.60;99.90;;;;;;4350593;33;20148;-78
2021/01/20 11:01:43;;;;;;;46.73;22.57;;;2.60;99.90;;;;;;4350324;33;20159;-76
2021/01/20 11:04:11;;;;;;;48.27;22.80;;;2.70;99.90;;;;;;4350410;33;20160;-75
2021/01/20 11:06:38;;;;;;;46.10;22.30;;;2.70;99.90;;;;;;4350772;33;20492;-76
2021/01/20 11:09:04;;;;;;;51.03;23.33;;;2.70;99.90;;;;;;4350722;33;20223;-76
2021/01/20 11:11:31;;;;;;;54.17;24.30;;;2.70;99.90;;;;;;4350575;33;20546;-77
2021/01/20 11:13:58;;;;;;;51.47;24.17;;;2.80;99.90;;;;;;4349945;33;20460;-76
2021/01/20 11:16:25;;;;;;;53.93;24.80;;;2.70;99.90;;;;;;4350289;33;20211;-77
2021/01/20 11:18:52;;;;;;;52.53;24.60;;;2.80;99.90;;;;;;4349874;33;20499;-76
2021/01/20 11:21:19;;;;;;;52.03;24.47;;;2.80;99.90;;;;;;4351467;33;20168;-76
2021/01/20 11:23:45;;;;;;;49.50;23.90;;;2.80;99.90;;;;;;4350971;33;20568;-77
2021/01/20 11:26:13;;;;;;;47.57;23.73;;;2.80;99.90;;;;;;4350947;33;20207;-76
2021/01/20 11:28:40;;;;;;;51.17;24.07;;;2.90;99.90;;;;;;4350403;33;20203;-78
2021/01/20 11:31:07;;;;;;;54.57;23.57;;;3.00;99.90;;;;;;4350552;33;20156;-76
2021/01/20 11:33:37;;;;;;;48.77;23.20;;;2.90;99.90;;;;;;4350419;33;20152;-75
2021/01/20 11:36:06;;;;;;;50.50;23.77;;;3.00;99.90;;;;;;4350614;33;20179;-78
2021/01/20 11:38:34;;;;;;;51.27;24.40;;;3.10;99.90;;;;;;4349952;33;20490;-77
2021/01/20 11:41:01;;;;;;;50.17;24.10;;;3.20;99.90;;;;;;4350974;33;20198;-76
2021/01/20 11:43:28;;;;;;;48.00;24.03;;;3.20;99.90;;;;;;4351532;33;20149;-77
2021/01/20 11:45:54;;;;;;;46.03;23.20;;;3.20;99.90;;;;;;4350876;33;20226;-76
2021/01/20 11:48:21;;;;;;;48.10;24.10;;;3.30;99.90;;;;;;4349159;33;20174;-76
2021/01/20 11:50:48;;;;;;;47.97;23.97;;;3.40;99.90;;;;;;4348492;33;20215;-76
2021/01/20 11:53:23;;;;;;;49.23;24.13;;;3.50;99.90;;;;;;4349522;33;20149;-76
2021/01/20 11:55:51;;;;;;;47.00;23.90;;;3.70;99.90;;;;;;4349529;33;20167;-75
2021/01/20 11:58:19;;;;;;;44.60;23.27;;;3.70;99.90;;;;;;4348953;33;20487;-76
2021/01/20 12:00:46;;;;;;;47.10;22.97;;;3.80;99.90;;;;;;4349893;33;20220;-76
2021/01/20 12:03:12;;;;;;;43.53;23.03;;;3.70;99.90;;;;;;4350239;33;20456;-75
2021/01/20 12:05:39;;;;;;;42.70;21.40;;;3.80;99.90;;;;;;4349645;33;20168;-76
2021/01/20 12:08:06;;;;;;;42.37;22.13;;;3.80;99.90;;;;;;4349864;33;20215;-76
2021/01/20 12:10:32;;;;;;;45.17;23.17;;;3.80;99.90;;;;;;4349875;33;20200;-77
2021/01/20 12:13:05;;;;;;;44.37;23.47;;;3.90;99.90;;;;;;4348899;33;20159;-76
2021/01/20 12:15:31;;;;;;;39.40;21.63;;;4.00;99.90;;;;;;4348829;33;20180;-77
2021/01/20 12:17:58;;;;;;;39.27;21.23;;;4.10;99.90;;;;;;4349822;33;20157;-78
2021/01/20 12:20:25;;;;;;;38.77;20.93;;;4.20;99.90;;;;;;4349879;33;20151;-78
2021/01/20 12:22:52;;;;;;;39.00;20.70;;;4.20;99.90;;;;;;4349833;33;20502;-79
2021/01/20 12:25:19;;;;;;;38.67;21.40;;;4.20;99.90;;;;;;4345529;33;20203;-79
2021/01/20 12:27:45;;;;;;;38.43;21.17;;;4.30;99.90;;;;;;4347759;33;20156;-79
2021/01/20 12:30:13;;;;;;;38.53;21.00;;;4.40;99.90;;;;;;4347827;33;20263;-78
2021/01/20 12:32:40;;;;;;;38.03;21.00;;;4.60;99.90;;;;;;4348139;33;20184;-79
2021/01/20 12:35:07;;;;;;;33.30;19.67;;;4.70;99.90;;;;;;4347398;33;20172;-79
2021/01/20 12:37:34;;;;;;;35.47;19.63;;;4.80;99.90;;;;;;4347829;33;20182;-80
2021/01/20 12:40:00;;;;;;;38.40;20.03;;;4.70;99.90;;;;;;4348183;33;20414;-81
2021/01/20 12:42:27;;;;;;;35.03;18.67;;;4.70;99.90;;;;;;4349665;33;20140;-78